sensor_id;sensor_type;location;lat;lon;timestamp;pressure;altitude;pressure_sealevel;temperature;humidity
18569;BME280;14780;48.316;-1.050;2023-03-31T00:01:06;97647.72;;;23.43;38.45
18569;BME280;14780;48.316;-1.050;2023-03-31T00:03:50;97646.63;;;23.44;38.44
18569;BME280;14780;48.316;-1.050;2023-03-31T00:06:36;97645.00;;;23.43;38.38
18569;BME280;14780;48.316;-1.050;2023-03-31T00:09:21;97631.34;;;23.43;38.42
18569;BME280;14780;48.316;-1.050;2023-03-31T00:12:06;97629.75;;;23.42;38.41
18569;BME280;14780;48.316;-1.050;2023-03-31T00:14:51;97621.03;;;23.40;38.32
18569;BME280;14780;48.316;-1.050;2023-03-31T00:17:36;97622.66;;;23.42;38.45
18569;BME280;14780;48.316;-1.050;2023-03-31T00:20:21;97612.34;;;23.38;38.37
18569;BME280;14780;48.316;-1.050;2023-03-31T00:23:06;97600.63;;;23.38;38.37
18569;BME280;14780;48.316;-1.050;2023-03-31T00:25:55;97608.81;;;23.38;38.33
18569;BME280;14780;48.316;-1.050;2023-03-31T00:28:39;97599.19;;;23.40;38.41
18569;BME280;14780;48.316;-1.050;2023-03-31T00:31:24;97583.44;;;23.38;38.39
18569;BME280;14780;48.316;-1.050;2023-03-31T00:34:10;97597.09;;;23.38;38.46
18569;BME280;14780;48.316;-1.050;2023-03-31T00:36:55;97598.19;;;23.37;38.37
18569;BME280;14780;48.316;-1.050;2023-03-31T00:39:41;97596.59;;;23.36;38.34
18569;BME280;14780;48.316;-1.050;2023-03-31T00:42:27;97593.84;;;23.36;38.32
18569;BME280;14780;48.316;-1.050;2023-03-31T00:48:07;97584.06;;;23.35;38.36
18569;BME280;14780;48.316;-1.050;2023-03-31T00:50:58;97583.03;;;23.31;38.32
18569;BME280;14780;48.316;-1.050;2023-03-31T00:53:52;97585.47;;;23.32;38.37
18569;BME280;14780;48.316;-1.050;2023-03-31T00:56:45;97589.59;;;23.30;38.26
18569;BME280;14780;48.316;-1.050;2023-03-31T00:59:38;97580.31;;;23.31;38.29
18569;BME280;14780;48.316;-1.050;2023-03-31T01:02:24;97560.72;;;23.29;38.33
18569;BME280;14780;48.316;-1.050;2023-03-31T01:05:09;97554.72;;;23.27;38.30
18569;BME280;14780;48.316;-1.050;2023-03-31T01:07:54;97557.47;;;23.27;38.28
18569;BME280;14780;48.316;-1.050;2023-03-31T01:10:42;97535.94;;;23.25;38.27
18569;BME280;14780;48.316;-1.050;2023-03-31T01:13:29;97550.72;;;23.24;38.30
18569;BME280;14780;48.316;-1.050;2023-03-31T01:16:16;97525.63;;;23.22;38.32
18569;BME280;14780;48.316;-1.050;2023-03-31T01:19:01;97532.41;;;23.25;38.17
18569;BME280;14780;48.316;-1.050;2023-03-31T01:21:55;97513.94;;;23.22;38.25
18569;BME280;14780;48.316;-1.050;2023-03-31T01:54:53;97495.81;;;23.12;38.20
18569;BME280;14780;48.316;-1.050;2023-03-31T01:57:52;97496.94;;;23.11;38.24
18569;BME280;14780;48.316;-1.050;2023-03-31T02:00:41;97511.06;;;23.13;38.22
18569;BME280;14780;48.316;-1.050;2023-03-31T02:03:38;97487.34;;;23.14;38.10
18569;BME280;14780;48.316;-1.050;2023-03-31T02:06:34;97465.50;;;23.14;38.23
18569;BME280;14780;48.316;-1.050;2023-03-31T02:09:33;97474.47;;;23.14;38.18
18569;BME280;14780;48.316;-1.050;2023-03-31T02:12:21;97465.00;;;23.12;38.11
18569;BME280;14780;48.316;-1.050;2023-03-31T02:15:13;97472.88;;;23.13;38.14
18569;BME280;14780;48.316;-1.050;2023-03-31T02:18:01;97470.78;;;23.10;38.09
18569;BME280;14780;48.316;-1.050;2023-03-31T02:20:50;97472.69;;;23.10;37.96
18569;BME280;14780;48.316;-1.050;2023-03-31T02:23:38;97471.88;;;23.09;38.17
18569;BME280;14780;48.316;-1.050;2023-03-31T02:26:30;97474.28;;;23.11;38.17
18569;BME280;14780;48.316;-1.050;2023-03-31T02:29:17;97471.88;;;23.09;38.11
18569;BME280;14780;48.316;-1.050;2023-03-31T02:32:21;97466.22;;;23.06;38.20
18569;BME280;14780;48.316;-1.050;2023-03-31T02:35:11;97460.78;;;23.06;38.27
18569;BME280;14780;48.316;-1.050;2023-03-31T02:37:56;97447.13;;;23.06;38.23
18569;BME280;14780;48.316;-1.050;2023-03-31T02:40:42;97446.03;;;23.07;38.18
18569;BME280;14780;48.316;-1.050;2023-03-31T02:43:26;97449.88;;;23.06;38.21
18569;BME280;14780;48.316;-1.050;2023-03-31T02:46:11;97437.31;;;23.05;38.12
18569;BME280;14780;48.316;-1.050;2023-03-31T02:48:58;97435.72;;;23.04;38.16
18569;BME280;14780;48.316;-1.050;2023-03-31T03:10:19;97387.44;;;23.04;38.01
18569;BME280;14780;48.316;-1.050;2023-03-31T03:13:34;97378.94;;;23.06;37.99
18569;BME280;14780;48.316;-1.050;2023-03-31T03:16:32;97384.50;;;23.01;37.89
18569;BME280;14780;48.316;-1.050;2023-03-31T03:19:21;97396.53;;;23.00;37.94
18569;BME280;14780;48.316;-1.050;2023-03-31T03:22:07;97401.78;;;22.96;37.94
18569;BME280;14780;48.316;-1.050;2023-03-31T03:24:52;97419.28;;;22.95;37.87
18569;BME280;14780;48.316;-1.050;2023-03-31T03:27:37;97417.97;;;22.93;37.88
18569;BME280;14780;48.316;-1.050;2023-03-31T03:30:22;97402.81;;;22.87;38.08
18569;BME280;14780;48.316;-1.050;2023-03-31T03:33:07;97408.47;;;22.90;38.03
18569;BME280;14780;48.316;-1.050;2023-03-31T03:35:52;97397.84;;;22.89;37.89
18569;BME280;14780;48.316;-1.050;2023-03-31T03:38:36;97390.50;;;22.89;37.94
18569;BME280;14780;48.316;-1.050;2023-03-31T03:41:21;97403.22;;;22.94;37.86
18569;BME280;14780;48.316;-1.050;2023-03-31T03:44:06;97389.56;;;22.94;37.77
18569;BME280;14780;48.316;-1.050;2023-03-31T03:46:50;97398.34;;;22.91;37.85
18569;BME280;14780;48.316;-1.050;2023-03-31T03:49:35;97392.91;;;22.91;37.73
18569;BME280;14780;48.316;-1.050;2023-03-31T03:52:20;97373.31;;;22.89;37.68
18569;BME280;14780;48.316;-1.050;2023-03-31T03:55:05;97368.97;;;22.88;37.70
18569;BME280;14780;48.316;-1.050;2023-03-31T03:57:50;97374.72;;;22.86;37.79
18569;BME280;14780;48.316;-1.050;2023-03-31T04:00:35;97372.00;;;22.86;37.78
18569;BME280;14780;48.316;-1.050;2023-03-31T04:03:19;97367.66;;;22.85;37.71
18569;BME280;14780;48.316;-1.050;2023-03-31T04:06:04;97366.69;;;22.81;37.72
18569;BME280;14780;48.316;-1.050;2023-03-31T04:08:49;97363.44;;;22.79;37.67
18569;BME280;14780;48.316;-1.050;2023-03-31T04:11:34;97367.59;;;22.77;37.76
18569;BME280;14780;48.316;-1.050;2023-03-31T04:14:19;97369.31;;;22.73;37.86
18569;BME280;14780;48.316;-1.050;2023-03-31T04:17:04;97370.91;;;22.74;37.77
18569;BME280;14780;48.316;-1.050;2023-03-31T04:19:49;97360.00;;;22.74;37.86
18569;BME280;14780;48.316;-1.050;2023-03-31T04:22:34;97366.59;;;22.73;37.86
18569;BME280;14780;48.316;-1.050;2023-03-31T04:25:24;97385.66;;;22.73;37.86
18569;BME280;14780;48.316;-1.050;2023-03-31T04:28:08;97381.03;;;22.73;37.75
18569;BME280;14780;48.316;-1.050;2023-03-31T04:30:54;97376.66;;;22.72;37.81
18569;BME280;14780;48.316;-1.050;2023-03-31T04:33:42;97383.25;;;22.71;37.78
18569;BME280;14780;48.316;-1.050;2023-03-31T04:36:29;97393.34;;;22.71;37.79
18569;BME280;14780;48.316;-1.050;2023-03-31T04:39:16;97401.81;;;22.69;37.89
18569;BME280;14780;48.316;-1.050;2023-03-31T04:42:01;97384.66;;;22.69;37.90
18569;BME280;14780;48.316;-1.050;2023-03-31T04:44:45;97379.81;;;22.66;38.03
18569;BME280;14780;48.316;-1.050;2023-03-31T04:47:30;97369.94;;;22.70;37.91
18569;BME280;14780;48.316;-1.050;2023-03-31T04:50:15;97367.59;;;22.77;37.72
18569;BME280;14780;48.316;-1.050;2023-03-31T04:53:00;97369.50;;;22.76;37.78
18569;BME280;14780;48.316;-1.050;2023-03-31T04:55:45;97373.56;;;22.79;37.78
18569;BME280;14780;48.316;-1.050;2023-03-31T04:58:30;97369.22;;;22.78;37.76
18569;BME280;14780;48.316;-1.050;2023-03-31T05:01:14;97376.38;;;22.74;37.87
18569;BME280;14780;48.316;-1.050;2023-03-31T05:04:03;97377.78;;;22.71;37.81
18569;BME280;14780;48.316;-1.050;2023-03-31T05:06:48;97375.59;;;22.73;37.74
18569;BME280;14780;48.316;-1.050;2023-03-31T05:09:33;97382.13;;;22.72;37.80
18569;BME280;14780;48.316;-1.050;2023-03-31T05:12:18;97373.94;;;22.72;37.88
18569;BME280;14780;48.316;-1.050;2023-03-31T05:15:04;97368.28;;;22.69;37.76
18569;BME280;14780;48.316;-1.050;2023-03-31T05:17:49;97360.63;;;22.71;37.86
18569;BME280;14780;48.316;-1.050;2023-03-31T05:20:36;97379.19;;;22.69;37.91
18569;BME280;14780;48.316;-1.050;2023-03-31T05:23:21;97385.28;;;22.66;37.87
18569;BME280;14780;48.316;-1.050;2023-03-31T05:26:05;97373.75;;;22.69;37.82
18569;BME280;14780;48.316;-1.050;2023-03-31T05:28:52;97380.13;;;22.64;37.83
18569;BME280;14780;48.316;-1.050;2023-03-31T05:31:37;97384.44;;;22.65;37.78
18569;BME280;14780;48.316;-1.050;2023-03-31T05:34:22;97387.81;;;22.62;37.84
18569;BME280;14780;48.316;-1.050;2023-03-31T05:37:06;97385.75;;;22.68;37.87
18569;BME280;14780;48.316;-1.050;2023-03-31T05:39:51;97377.09;;;22.66;37.87
18569;BME280;14780;48.316;-1.050;2023-03-31T05:42:37;97379.63;;;22.62;37.81
18569;BME280;14780;48.316;-1.050;2023-03-31T05:45:21;97383.66;;;22.65;37.83
18569;BME280;14780;48.316;-1.050;2023-03-31T05:48:06;97396.28;;;22.61;37.96
18569;BME280;14780;48.316;-1.050;2023-03-31T05:50:51;97390.31;;;22.59;38.06
18569;BME280;14780;48.316;-1.050;2023-03-31T05:53:39;97389.31;;;22.55;38.11
18569;BME280;14780;48.316;-1.050;2023-03-31T05:56:25;97379.91;;;22.61;38.02
18569;BME280;14780;48.316;-1.050;2023-03-31T05:59:11;97387.59;;;22.59;38.08
18569;BME280;14780;48.316;-1.050;2023-03-31T06:01:55;97393.34;;;22.57;38.01
18569;BME280;14780;48.316;-1.050;2023-03-31T06:04:40;97385.50;;;22.56;38.09
18569;BME280;14780;48.316;-1.050;2023-03-31T06:07:25;97395.56;;;22.55;38.10
18569;BME280;14780;48.316;-1.050;2023-03-31T06:10:10;97398.81;;;22.57;38.11
18569;BME280;14780;48.316;-1.050;2023-03-31T06:12:54;97409.69;;;22.57;38.11
18569;BME280;14780;48.316;-1.050;2023-03-31T06:15:39;97404.25;;;22.57;38.14
18569;BME280;14780;48.316;-1.050;2023-03-31T06:18:25;97396.69;;;22.54;38.13
18569;BME280;14780;48.316;-1.050;2023-03-31T06:21:14;97396.50;;;22.51;38.30
18569;BME280;14780;48.316;-1.050;2023-03-31T06:24:00;97408.50;;;22.50;38.26
18569;BME280;14780;48.316;-1.050;2023-03-31T06:26:45;97401.75;;;22.47;38.32
18569;BME280;14780;48.316;-1.050;2023-03-31T06:29:30;97402.84;;;22.46;38.24
18569;BME280;14780;48.316;-1.050;2023-03-31T06:32:15;97398.19;;;22.47;38.33
18569;BME280;14780;48.316;-1.050;2023-03-31T06:35:00;97410.31;;;22.41;38.35
18569;BME280;14780;48.316;-1.050;2023-03-31T06:37:45;97401.59;;;22.39;38.53
18569;BME280;14780;48.316;-1.050;2023-03-31T06:40:30;97413.56;;;22.43;38.42
18569;BME280;14780;48.316;-1.050;2023-03-31T06:43:14;97431.81;;;22.42;38.41
18569;BME280;14780;48.316;-1.050;2023-03-31T06:45:59;97415.75;;;22.41;38.45
18569;BME280;14780;48.316;-1.050;2023-03-31T06:48:44;97420.38;;;22.40;38.45
18569;BME280;14780;48.316;-1.050;2023-03-31T06:51:29;97416.34;;;22.38;38.48
18569;BME280;14780;48.316;-1.050;2023-03-31T06:54:14;97432.19;;;22.36;38.51
18569;BME280;14780;48.316;-1.050;2023-03-31T06:56:59;97419.69;;;22.35;38.51
18569;BME280;14780;48.316;-1.050;2023-03-31T06:59:43;97422.06;;;22.36;38.57
18569;BME280;14780;48.316;-1.050;2023-03-31T07:02:28;97425.63;;;22.37;38.45
18569;BME280;14780;48.316;-1.050;2023-03-31T07:05:13;97422.59;;;22.38;38.56
18569;BME280;14780;48.316;-1.050;2023-03-31T07:07:59;97429.16;;;22.37;38.52
18569;BME280;14780;48.316;-1.050;2023-03-31T07:10:45;97431.91;;;22.37;38.56
18569;BME280;14780;48.316;-1.050;2023-03-31T07:13:32;97432.38;;;22.39;38.55
18569;BME280;14780;48.316;-1.050;2023-03-31T07:16:17;97438.75;;;22.35;38.67
18569;BME280;14780;48.316;-1.050;2023-03-31T07:19:02;97443.00;;;22.41;38.65
18569;BME280;14780;48.316;-1.050;2023-03-31T07:21:47;97437.78;;;22.44;38.54
18569;BME280;14780;48.316;-1.050;2023-03-31T07:24:32;97451.97;;;22.41;38.55
18569;BME280;14780;48.316;-1.050;2023-03-31T07:27:17;97459.13;;;22.37;38.54
18569;BME280;14780;48.316;-1.050;2023-03-31T07:30:12;97458.31;;;22.37;38.71
18569;BME280;14780;48.316;-1.050;2023-03-31T07:32:58;97453.47;;;22.34;38.73
18569;BME280;14780;48.316;-1.050;2023-03-31T07:35:43;97466.56;;;22.32;38.76
18569;BME280;14780;48.316;-1.050;2023-03-31T07:38:28;97463.34;;;22.30;38.72
18569;BME280;14780;48.316;-1.050;2023-03-31T07:41:15;97476.47;;;22.28;38.83
18569;BME280;14780;48.316;-1.050;2023-03-31T07:44:00;97455.69;;;22.32;38.74
18569;BME280;14780;48.316;-1.050;2023-03-31T07:46:45;97461.53;;;22.39;38.62
18569;BME280;14780;48.316;-1.050;2023-03-31T07:49:31;97462.16;;;22.36;38.70
18569;BME280;14780;48.316;-1.050;2023-03-31T07:52:17;97469.72;;;22.25;38.85
18569;BME280;14780;48.316;-1.050;2023-03-31T07:55:03;97466.53;;;22.50;38.42
18569;BME280;14780;48.316;-1.050;2023-03-31T07:57:48;97453.22;;;22.49;38.37
18569;BME280;14780;48.316;-1.050;2023-03-31T08:00:34;97461.59;;;22.52;38.27
18569;BME280;14780;48.316;-1.050;2023-03-31T08:03:20;97464.53;;;22.56;38.29
18569;BME280;14780;48.316;-1.050;2023-03-31T08:06:05;97465.03;;;22.58;38.28
18569;BME280;14780;48.316;-1.050;2023-03-31T08:08:50;97475.13;;;22.57;38.35
18569;BME280;14780;48.316;-1.050;2023-03-31T08:11:35;97472.09;;;22.59;38.37
18569;BME280;14780;48.316;-1.050;2023-03-31T08:14:20;97487.94;;;22.57;38.35
18569;BME280;14780;48.316;-1.050;2023-03-31T08:17:05;97478.16;;;22.56;38.37
18569;BME280;14780;48.316;-1.050;2023-03-31T08:19:50;97490.06;;;22.60;38.25
18569;BME280;14780;48.316;-1.050;2023-03-31T08:22:39;97473.13;;;22.63;38.14
18569;BME280;14780;48.316;-1.050;2023-03-31T08:25:24;97476.63;;;22.63;38.10
18569;BME280;14780;48.316;-1.050;2023-03-31T08:28:09;97489.06;;;22.69;38.04
18569;BME280;14780;48.316;-1.050;2023-03-31T08:31:05;97478.97;;;22.70;38.01
18569;BME280;14780;48.316;-1.050;2023-03-31T08:33:50;97487.16;;;22.70;38.06
18569;BME280;14780;48.316;-1.050;2023-03-31T08:36:35;97487.16;;;22.70;38.02
18569;BME280;14780;48.316;-1.050;2023-03-31T08:39:19;97490.97;;;22.69;37.99
18569;BME280;14780;48.316;-1.050;2023-03-31T08:42:19;97502.41;;;22.71;37.90
18569;BME280;14780;48.316;-1.050;2023-03-31T08:48:23;97507.25;;;22.74;37.86
18569;BME280;14780;48.316;-1.050;2023-03-31T08:51:39;97508.34;;;22.73;37.83
18569;BME280;14780;48.316;-1.050;2023-03-31T08:54:43;97507.25;;;22.74;37.88
18569;BME280;14780;48.316;-1.050;2023-03-31T08:57:45;97516.53;;;22.73;37.84
18569;BME280;14780;48.316;-1.050;2023-03-31T09:00:43;97522.28;;;22.71;37.83
18569;BME280;14780;48.316;-1.050;2023-03-31T09:18:32;97534.28;;;22.70;37.91
18569;BME280;14780;48.316;-1.050;2023-03-31T09:21:24;97535.41;;;22.69;37.92
18569;BME280;14780;48.316;-1.050;2023-03-31T09:24:20;97540.16;;;22.77;37.75
18569;BME280;14780;48.316;-1.050;2023-03-31T09:27:09;97522.88;;;22.68;37.89
18569;BME280;14780;48.316;-1.050;2023-03-31T09:30:03;97538.97;;;22.70;37.86
18569;BME280;14780;48.316;-1.050;2023-03-31T09:35:47;97535.13;;;22.71;37.88
18569;BME280;14780;48.316;-1.050;2023-03-31T09:38:32;97530.44;;;22.71;37.85
18569;BME280;14780;48.316;-1.050;2023-03-31T09:41:17;97535.91;;;22.71;37.84
18569;BME280;14780;48.316;-1.050;2023-03-31T09:44:20;97520.38;;;22.72;37.79
18569;BME280;14780;48.316;-1.050;2023-03-31T09:47:15;97534.78;;;22.72;37.83
18569;BME280;14780;48.316;-1.050;2023-03-31T09:50:04;97530.44;;;22.71;37.83
18569;BME280;14780;48.316;-1.050;2023-03-31T09:52:56;97534.78;;;22.72;37.93
18569;BME280;14780;48.316;-1.050;2023-03-31T09:56:00;97548.13;;;22.74;37.73
18569;BME280;14780;48.316;-1.050;2023-03-31T09:58:45;97531.56;;;22.70;37.82
18569;BME280;14780;48.316;-1.050;2023-03-31T10:01:30;97538.13;;;22.69;37.83
18569;BME280;14780;48.316;-1.050;2023-03-31T10:04:24;97555.53;;;22.73;37.84
18569;BME280;14780;48.316;-1.050;2023-03-31T10:07:11;97542.19;;;22.72;37.83
18569;BME280;14780;48.316;-1.050;2023-03-31T10:09:56;97539.44;;;22.72;37.88
18569;BME280;14780;48.316;-1.050;2023-03-31T10:12:49;97522.81;;;22.73;37.84
18569;BME280;14780;48.316;-1.050;2023-03-31T10:15:38;97518.16;;;22.74;37.78
18569;BME280;14780;48.316;-1.050;2023-03-31T10:18:35;97538.25;;;22.78;37.76
18569;BME280;14780;48.316;-1.050;2023-03-31T10:21:27;97527.63;;;22.76;37.76
18569;BME280;14780;48.316;-1.050;2023-03-31T10:24:18;97531.19;;;22.77;37.78
18569;BME280;14780;48.316;-1.050;2023-03-31T10:27:06;97549.94;;;22.78;37.89
18569;BME280;14780;48.316;-1.050;2023-03-31T10:29:58;97553.50;;;22.79;37.69
18569;BME280;14780;48.316;-1.050;2023-03-31T10:32:44;97565.41;;;22.83;37.87
18569;BME280;14780;48.316;-1.050;2023-03-31T10:35:34;97547.63;;;22.85;37.76
18569;BME280;14780;48.316;-1.050;2023-03-31T10:38:29;97571.28;;;22.90;37.73
18569;BME280;14780;48.316;-1.050;2023-03-31T10:41:20;97574.00;;;22.90;37.81
18569;BME280;14780;48.316;-1.050;2023-03-31T10:44:05;97577.53;;;22.90;37.83
18569;BME280;14780;48.316;-1.050;2023-03-31T10:46:51;97574.19;;;22.93;37.83
18569;BME280;14780;48.316;-1.050;2023-03-31T10:49:39;97567.63;;;22.94;37.82
18569;BME280;14780;48.316;-1.050;2023-03-31T10:52:25;97566.22;;;22.97;37.95
18569;BME280;14780;48.316;-1.050;2023-03-31T10:55:13;97569.47;;;22.99;37.79
18569;BME280;14780;48.316;-1.050;2023-03-31T11:13:40;97577.75;;;23.07;37.79
18569;BME280;14780;48.316;-1.050;2023-03-31T11:16:58;97562.69;;;23.10;37.73
18569;BME280;14780;48.316;-1.050;2023-03-31T11:20:02;97591.09;;;23.09;37.75
18569;BME280;14780;48.316;-1.050;2023-03-31T11:25:51;97572.09;;;23.04;37.73
18569;BME280;14780;48.316;-1.050;2023-03-31T11:28:55;97600.38;;;23.08;37.70
18569;BME280;14780;48.316;-1.050;2023-03-31T11:38:20;97588.44;;;23.04;37.71
18569;BME280;14780;48.316;-1.050;2023-03-31T11:41:14;97598.25;;;23.05;37.71
18569;BME280;14780;48.316;-1.050;2023-03-31T11:44:05;97623.91;;;23.04;37.67
18569;BME280;14780;48.316;-1.050;2023-03-31T11:46:59;97605.94;;;23.03;37.75
18569;BME280;14780;48.316;-1.050;2023-03-31T11:49:50;97613.00;;;23.04;37.54
18569;BME280;14780;48.316;-1.050;2023-03-31T11:52:41;97604.03;;;23.03;37.59
18569;BME280;14780;48.316;-1.050;2023-03-31T11:55:29;97604.31;;;23.02;37.63
18569;BME280;14780;48.316;-1.050;2023-03-31T12:04:40;97611.72;;;23.15;37.71
18569;BME280;14780;48.316;-1.050;2023-03-31T12:16:45;97609.00;;;23.28;37.71
18569;BME280;14780;48.316;-1.050;2023-03-31T12:19:43;97606.28;;;23.28;37.69
18569;BME280;14780;48.316;-1.050;2023-03-31T12:22:33;97603.75;;;23.32;37.75
18569;BME280;14780;48.316;-1.050;2023-03-31T12:25:21;97593.84;;;23.36;37.80
18569;BME280;14780;48.316;-1.050;2023-03-31T12:28:07;97591.63;;;23.38;37.88
18569;BME280;14780;48.316;-1.050;2023-03-31T12:30:54;97587.00;;;23.38;37.83
18569;BME280;14780;48.316;-1.050;2023-03-31T12:33:45;97607.91;;;23.42;37.88
18569;BME280;14780;48.316;-1.050;2023-03-31T12:43:05;97622.88;;;23.45;37.89
18569;BME280;14780;48.316;-1.050;2023-03-31T12:46:03;97609.81;;;23.42;37.99
18569;BME280;14780;48.316;-1.050;2023-03-31T12:49:20;97630.72;;;23.46;38.00
18569;BME280;14780;48.316;-1.050;2023-03-31T12:58:34;97617.97;;;23.55;38.03
18569;BME280;14780;48.316;-1.050;2023-03-31T13:01:23;97605.97;;;23.56;38.00
18569;BME280;14780;48.316;-1.050;2023-03-31T13:04:16;97606.28;;;23.55;38.00
18569;BME280;14780;48.316;-1.050;2023-03-31T13:07:39;97610.31;;;23.57;38.05
18569;BME280;14780;48.316;-1.050;2023-03-31T13:15:53;97592.09;;;23.66;38.02
18569;BME280;14780;48.316;-1.050;2023-03-31T13:18:39;97601.09;;;23.67;38.02
18569;BME280;14780;48.316;-1.050;2023-03-31T13:21:27;97606.25;;;23.68;38.19
18569;BME280;14780;48.316;-1.050;2023-03-31T13:24:12;97596.13;;;23.69;37.94
18569;BME280;14780;48.316;-1.050;2023-03-31T13:27:28;97608.25;;;23.76;37.91
18569;BME280;14780;48.316;-1.050;2023-03-31T13:30:49;97614.53;;;23.77;37.78
18569;BME280;14780;48.316;-1.050;2023-03-31T13:48:34;97666.72;;;23.62;37.76
18569;BME280;14780;48.316;-1.050;2023-03-31T13:51:59;97668.25;;;23.68;37.75
18569;BME280;14780;48.316;-1.050;2023-03-31T14:01:00;97670.66;;;23.69;37.82
18569;BME280;14780;48.316;-1.050;2023-03-31T14:09:58;97676.22;;;23.78;37.73
18569;BME280;14780;48.316;-1.050;2023-03-31T14:12:44;97669.34;;;23.80;37.76
18569;BME280;14780;48.316;-1.050;2023-03-31T14:15:31;97674.19;;;23.83;37.64
18569;BME280;14780;48.316;-1.050;2023-03-31T14:18:38;97676.03;;;23.88;37.58
18569;BME280;14780;48.316;-1.050;2023-03-31T14:21:40;97677.53;;;23.80;37.14
18569;BME280;14780;48.316;-1.050;2023-03-31T14:36:44;97667.53;;;23.62;37.22
18569;BME280;14780;48.316;-1.050;2023-03-31T14:42:36;97662.88;;;23.63;37.17
18569;BME280;14780;48.316;-1.050;2023-03-31T14:45:25;97657.72;;;23.61;37.30
18569;BME280;14780;48.316;-1.050;2023-03-31T14:48:13;97666.72;;;23.62;37.15
18569;BME280;14780;48.316;-1.050;2023-03-31T14:51:02;97652.25;;;23.61;37.17
18569;BME280;14780;48.316;-1.050;2023-03-31T14:53:56;97647.91;;;23.60;37.14
18569;BME280;14780;48.316;-1.050;2023-03-31T14:56:42;97665.41;;;23.59;37.13
18569;BME280;14780;48.316;-1.050;2023-03-31T14:59:32;97674.44;;;23.60;37.07
18569;BME280;14780;48.316;-1.050;2023-03-31T15:05:36;97688.97;;;23.55;37.04
18569;BME280;14780;48.316;-1.050;2023-03-31T15:08:22;97738.09;;;23.55;37.05
18569;BME280;14780;48.316;-1.050;2023-03-31T15:11:13;97729.13;;;23.55;37.06
18569;BME280;14780;48.316;-1.050;2023-03-31T15:14:00;97722.03;;;23.54;37.06
18569;BME280;14780;48.316;-1.050;2023-03-31T15:16:45;97735.69;;;23.54;37.05
18569;BME280;14780;48.316;-1.050;2023-03-31T15:19:33;97739.75;;;23.56;37.15
18569;BME280;14780;48.316;-1.050;2023-03-31T15:22:19;97730.44;;;23.57;37.06
18569;BME280;14780;48.316;-1.050;2023-03-31T15:25:05;97727.38;;;23.59;37.13
18569;BME280;14780;48.316;-1.050;2023-03-31T15:27:56;97732.25;;;23.62;37.22
18569;BME280;14780;48.316;-1.050;2023-03-31T15:30:43;97736.09;;;23.61;37.20
18569;BME280;14780;48.316;-1.050;2023-03-31T15:33:34;97720.50;;;23.61;37.14
18569;BME280;14780;48.316;-1.050;2023-03-31T15:36:26;97714.25;;;23.61;37.12
18569;BME280;14780;48.316;-1.050;2023-03-31T15:39:13;97706.38;;;23.59;37.22
18569;BME280;14780;48.316;-1.050;2023-03-31T15:42:01;97719.72;;;23.61;37.21
18569;BME280;14780;48.316;-1.050;2023-03-31T15:44:54;97711.22;;;23.62;37.27
18569;BME280;14780;48.316;-1.050;2023-03-31T15:47:48;97721.03;;;23.63;37.10
18569;BME280;14780;48.316;-1.050;2023-03-31T15:50:34;97736.91;;;23.61;37.21
18569;BME280;14780;48.316;-1.050;2023-03-31T15:53:27;97743.88;;;23.67;37.13
18569;BME280;14780;48.316;-1.050;2023-03-31T15:56:27;97724.78;;;23.67;37.15
18569;BME280;14780;48.316;-1.050;2023-03-31T15:59:23;97738.91;;;23.69;37.25
18569;BME280;14780;48.316;-1.050;2023-03-31T16:02:12;97737.31;;;23.68;37.13
18569;BME280;14780;48.316;-1.050;2023-03-31T16:04:59;97760.28;;;23.67;37.21
18569;BME280;14780;48.316;-1.050;2023-03-31T16:07:43;97768.97;;;23.69;37.25
18569;BME280;14780;48.316;-1.050;2023-03-31T16:10:29;97770.91;;;23.69;37.16
18569;BME280;14780;48.316;-1.050;2023-03-31T16:13:19;97780.69;;;23.70;37.13
18569;BME280;14780;48.316;-1.050;2023-03-31T16:16:09;97774.41;;;23.69;37.09
18569;BME280;14780;48.316;-1.050;2023-03-31T16:19:05;97781.81;;;23.69;37.09
18569;BME280;14780;48.316;-1.050;2023-03-31T16:21:54;97773.91;;;23.67;37.13
18569;BME280;14780;48.316;-1.050;2023-03-31T16:24:43;97781.63;;;23.65;37.13
18569;BME280;14780;48.316;-1.050;2023-03-31T16:27:28;97777.28;;;23.64;37.11
18569;BME280;14780;48.316;-1.050;2023-03-31T16:30:17;97790.31;;;23.67;37.19
18569;BME280;14780;48.316;-1.050;2023-03-31T16:33:07;97791.13;;;23.68;37.17
18569;BME280;14780;48.316;-1.050;2023-03-31T16:35:54;97781.00;;;23.68;37.13
18569;BME280;14780;48.316;-1.050;2023-03-31T16:38:42;97787.56;;;23.67;37.21
18569;BME280;14780;48.316;-1.050;2023-03-31T16:41:31;97796.59;;;23.68;37.19
18569;BME280;14780;48.316;-1.050;2023-03-31T16:44:16;97800.44;;;23.67;37.06
18569;BME280;14780;48.316;-1.050;2023-03-31T16:47:00;97810.03;;;23.64;37.09
18569;BME280;14780;48.316;-1.050;2023-03-31T16:49:45;97811.16;;;23.63;37.02
18569;BME280;14780;48.316;-1.050;2023-03-31T16:52:30;97807.88;;;23.61;37.17
18569;BME280;14780;48.316;-1.050;2023-03-31T16:55:14;97841.75;;;23.60;37.20
18569;BME280;14780;48.316;-1.050;2023-03-31T16:57:59;97832.25;;;23.58;37.16
18569;BME280;14780;48.316;-1.050;2023-03-31T17:00:47;97832.56;;;23.56;37.20
18569;BME280;14780;48.316;-1.050;2023-03-31T17:03:32;97830.94;;;23.55;37.21
18569;BME280;14780;48.316;-1.050;2023-03-31T17:06:16;97831.75;;;23.56;37.25
18569;BME280;14780;48.316;-1.050;2023-03-31T17:09:01;97840.22;;;23.54;37.26
18569;BME280;14780;48.316;-1.050;2023-03-31T17:11:46;97842.97;;;23.54;37.21
18569;BME280;14780;48.316;-1.050;2023-03-31T17:14:32;97844.06;;;23.53;37.26
18569;BME280;14780;48.316;-1.050;2023-03-31T17:17:17;97843.56;;;23.51;37.22
18569;BME280;14780;48.316;-1.050;2023-03-31T17:20:02;97845.03;;;23.31;37.59
18569;BME280;14780;48.316;-1.050;2023-03-31T17:22:47;97851.19;;;23.36;37.41
18569;BME280;14780;48.316;-1.050;2023-03-31T17:25:32;97859.38;;;23.36;37.35
18569;BME280;14780;48.316;-1.050;2023-03-31T17:28:18;97869.50;;;23.36;37.43
18569;BME280;14780;48.316;-1.050;2023-03-31T17:33:56;97865.75;;;23.32;37.38
18569;BME280;14780;48.316;-1.050;2023-03-31T17:36:42;97855.94;;;23.31;37.46
18569;BME280;14780;48.316;-1.050;2023-03-31T17:39:27;97859.16;;;23.33;37.46
18569;BME280;14780;48.316;-1.050;2023-03-31T17:42:13;97867.69;;;23.31;37.46